WetterOnline ( http://www.wetteronline.de )

Wetter aktuell Konstanz

Aktuelles Wetter: Konstanz (397m)

6-stündlich | Neueste Meldungen
Ortszeit Temperatur Wetter
Mo, 22.10. 8:00 3.3° C wolkenlos
Mo, 22.10. 2:00 6.9° C wolkenlos
So, 21.10. 20:00 11.1° C wolkenlos
So, 21.10. 14:00 15.9° C wolkenlos
So, 21.10. 8:00 7.1° C wolkig
So, 21.10. 2:00 9.4° C wolkig
Sa, 20.10. 20:00 11.8° C wolkig
Sa, 20.10. 14:00 15.2° C wolkenlos
Ortszeit Temperatur Wetter
Mo, 22.10. 13:00 11.5° C wolkenlos
Mo, 22.10. 12:50 11.5° C wolkenlos
Mo, 22.10. 12:40 10.4° C wolkenlos
Mo, 22.10. 12:30 9.9° C wolkenlos
Mo, 22.10. 12:20 9.9° C wolkenlos
Mo, 22.10. 12:10 10.1° C fast wolkenlos
Mo, 22.10. 12:00 9.7° C leicht bewölkt
Mo, 22.10. 11:30 9.9° C leicht bewölkt
Mo, 22.10. 11:00 9.0° C wolkenlos
Mo, 22.10. 10:30 7.6° C fast wolkenlos
Mo, 22.10. 10:00 6.4° C fast wolkenlos
Ortszeit Relative Feuchte Sichtweite
Mo, 22.10. 8:00 89% 22 km
Mo, 22.10. 2:00 72% 55 km
So, 21.10. 20:00 61% 40 km
So, 21.10. 14:00 53% 19 km
So, 21.10. 8:00 97% 2.1 km
So, 21.10. 2:00 92% 3.8 km
Sa, 20.10. 20:00 89% 3.9 km
Sa, 20.10. 14:00 72% 4.6 km
Ortszeit Relative Feuchte Sichtweite
Mo, 22.10. 13:00 57% 25 km
Mo, 22.10. 12:50 57% -
Mo, 22.10. 12:40 59% -
Mo, 22.10. 12:30 60% 24 km
Mo, 22.10. 12:20 60% -
Mo, 22.10. 12:10 62% -
Mo, 22.10. 12:00 62% 28 km
Mo, 22.10. 11:30 62% 27 km
Mo, 22.10. 11:00 65% 30 km
Mo, 22.10. 10:30 68% 27 km
Mo, 22.10. 10:00 76% 25 km
Ortszeit Niederschlagsmenge Niederschlagsart
Mo, 22.10. 8:00 0.0 l/m2 in 12 Std. -
Mo, 22.10. 2:00 0.0 l/m2 in 6 Std. -
So, 21.10. 20:00 0.0 l/m2 in 12 Std. -
So, 21.10. 14:00 0.0 l/m2 in 6 Std. -
So, 21.10. 8:00 0.0 l/m2 in 12 Std. -
So, 21.10. 2:00 0.0 l/m2 in 6 Std. -
Sa, 20.10. 20:00 0.0 l/m2 in 12 Std. -
Sa, 20.10. 14:00 0.0 l/m2 in 6 Std. -
Ortszeit Niederschlagsmenge Niederschlagsart
Mo, 22.10. 13:00 0.0 l/m2 in 1 Std. -
Mo, 22.10. 12:50 keine Meldung -
Mo, 22.10. 12:40 keine Meldung -
Mo, 22.10. 12:30 0.0 l/m2 in 1 Std. -
Mo, 22.10. 12:20 keine Meldung -
Mo, 22.10. 12:10 keine Meldung -
Mo, 22.10. 12:00 0.0 l/m2 in 1 Std. -
Mo, 22.10. 11:30 0.0 l/m2 in 1 Std. -
Mo, 22.10. 11:00 0.0 l/m2 in 1 Std. -
Mo, 22.10. 10:30 0.0 l/m2 in 1 Std. -
Mo, 22.10. 10:00 0.0 l/m2 in 1 Std. -
Ortszeit Stärke Spitze Richtung
km/h Bft. km/h Grad Sektor
Mo, 22.10. 8:00 4 1 14 350° N
Mo, 22.10. 2:00 7 2 22 40° NO
So, 21.10. 20:00 11 2 25 50° NO
So, 21.10. 14:00 7 2 11 30° NO
So, 21.10. 8:00 7 2 11 270° W
So, 21.10. 2:00 6 1 13 290° W
Sa, 20.10. 20:00 0 0 14 - -
Sa, 20.10. 14:00 7 2 14 190° S
Ortszeit Stärke Spitze Richtung
km/h Bft. km/h Grad Sektor
Mo, 22.10. 13:00 7 2 14 160° S
Mo, 22.10. 12:50 7 2 - 160° S
Mo, 22.10. 12:40 6 1 - 170° S
Mo, 22.10. 12:30 7 2 14 180° S
Mo, 22.10. 12:20 7 2 - 180° S
Mo, 22.10. 12:10 7 2 - 180° S
Mo, 22.10. 12:00 6 1 11 120° SO
Mo, 22.10. 11:30 6 1 11 80° O
Mo, 22.10. 11:00 4 1 14 20° N
Mo, 22.10. 10:30 7 2 14 10° N
Mo, 22.10. 10:00 6 1 13 360° N
Ortszeit Untergrenze Bedeckung Gattung
total tief tief mittel hoch
Mo, 22.10. 8:00 - 0/8 0/8 - - -
Mo, 22.10. 2:00 - 0/8 0/8 - - -
So, 21.10. 20:00 - 0/8 0/8 - - -
So, 21.10. 14:00 - 0/8 0/8 - - -
So, 21.10. 8:00 <30 m 8/8 3/8 - - -
So, 21.10. 2:00 8400 m 8/8 0/8 - - -
Sa, 20.10. 20:00 8100 m 8/8 0/8 - - -
Sa, 20.10. 14:00 510 m 0/8 0/8 - - -
Ortszeit Bedeckungsgrad in Achtel und Wolkenuntergrenze
Mo, 22.10. 13:00 keine Wolken
Mo, 22.10. 12:50 keine Wolken
Mo, 22.10. 12:40 keine Wolken
Mo, 22.10. 12:30 keine Wolken
Mo, 22.10. 12:20 keine Wolken
Mo, 22.10. 12:10 1(9000m)
Mo, 22.10. 12:00 4(9000m)
Mo, 22.10. 11:30 6(9000m)
Mo, 22.10. 11:00 2(9000m)
Mo, 22.10. 10:30 2(9000m)
Mo, 22.10. 10:00 1(10500m)
Ortszeit Luftdruck NN (hPa) Tendenz (hPa in 3 Std.)
Mo, 22.10. 8:00 1027 + 0,5
Mo, 22.10. 2:00 1026 - 0,3
So, 21.10. 20:00 1026 + 0,2
So, 21.10. 14:00 1025 - 1,5
So, 21.10. 8:00 1028 - 0,1
So, 21.10. 2:00 1029 - 0,7
Sa, 20.10. 20:00 1028 + 0,3
Sa, 20.10. 14:00 1028 0,0
Ortszeit Luftdruck NN (hPa) Tendenz (hPa in 3 Std.)
Mo, 22.10. 13:00 1028 + 0,7
Mo, 22.10. 12:50 1028 keine Meldung
Mo, 22.10. 12:40 1028 keine Meldung
Mo, 22.10. 12:30 1028 + 1,3
Mo, 22.10. 12:20 1028 keine Meldung
Mo, 22.10. 12:10 1028 keine Meldung
Mo, 22.10. 12:00 1028 + 1,1
Mo, 22.10. 11:30 1028 + 1,3
Mo, 22.10. 11:00 1028 + 1,5
Mo, 22.10. 10:30 1028 + 1,9
Mo, 22.10. 10:00 1028 + 1,7
Ortszeit Schneehöhe (cm)
Mo, 22.10. 8:00 0
Mo, 22.10. 2:00 0
So, 21.10. 20:00 0
So, 21.10. 14:00 0
So, 21.10. 8:00 0
So, 21.10. 2:00 0
Sa, 20.10. 20:00 0
Sa, 20.10. 14:00 0
Ortszeit Schneehöhe (cm)
Mo, 22.10. 13:00 0
Mo, 22.10. 12:50 0
Mo, 22.10. 12:40 0
Mo, 22.10. 12:30 0
Mo, 22.10. 12:20 0
Mo, 22.10. 12:10 0
Mo, 22.10. 12:00 0
Mo, 22.10. 11:30 0
Mo, 22.10. 11:00 0
Mo, 22.10. 10:30 0
Mo, 22.10. 10:00 0
Link zu dieser Seite / Seite empfehlen

Das Wetter in ...